Paint Bank, Virginia
Current Conditions -  °F | °C
As of 11:15 PM on Sunday 21 Dec 2014 (Local Time) from KLWB Reporting Station
Overcast Overcast  
Wind Chill: 37°   Ceiling: 2300
Heat Index: 37°   Visibility: 10mi
Dew Point: 31°   Wind: 3mph
Humidity: 76%   Direction: 110°ESE
Pressure: 30.17"   Gusts: NA
Location:  37.57°N, 80.26°W
Report Text: KLWB 220415Z AUTO 11003KT 10SM OVC023 03/M01 A3017 RMK AO2 T00301008
Loading
Personal Weather Stations






























Interactive Weather Map New forecast layout! Learn more

10-Day Weather Forecast

Advertisements
Track Severe Weather on mobile